createdAt,value
2018-05-25T00:02:01.218Z,19.41
2018-05-25T00:04:32.258Z,19.43
2018-05-25T00:07:03.288Z,19.40
2018-05-25T00:09:34.332Z,19.35
2018-05-25T00:12:05.331Z,19.30
2018-05-25T00:14:36.335Z,19.26
2018-05-25T00:17:07.313Z,19.26
2018-05-25T00:19:38.350Z,19.25
2018-05-25T00:22:09.363Z,19.26
2018-05-25T00:24:40.373Z,19.25
2018-05-25T00:27:11.386Z,19.22
2018-05-25T00:29:42.366Z,19.20
2018-05-25T00:32:13.377Z,19.13
2018-05-25T00:34:44.408Z,19.03
2018-05-25T00:37:15.387Z,18.96
2018-05-25T00:39:46.425Z,18.90
2018-05-25T00:42:17.420Z,18.83
2018-05-25T00:44:48.395Z,18.77
2018-05-25T00:47:19.404Z,18.73
2018-05-25T00:49:50.448Z,18.67
2018-05-25T00:52:21.436Z,18.59
2018-05-25T00:55:04.729Z,18.54
2018-05-25T00:57:35.740Z,18.50
2018-05-25T01:00:06.868Z,18.52
2018-05-25T01:02:37.907Z,18.56
2018-05-25T01:05:08.943Z,18.58
2018-05-25T01:07:39.949Z,18.62
2018-05-25T01:10:10.956Z,18.63
2018-05-25T01:12:41.982Z,18.64
2018-05-25T01:15:13.042Z,18.66
2018-05-25T01:17:44.065Z,18.71
2018-05-25T01:20:15.076Z,18.74
2018-05-25T01:22:46.079Z,18.74
2018-05-25T01:25:17.064Z,18.73
2018-05-25T01:27:48.092Z,18.74
2018-05-25T01:30:19.109Z,18.76
2018-05-25T01:32:50.116Z,18.77
2018-05-25T01:35:21.118Z,18.79
2018-05-25T01:37:52.113Z,18.80
2018-05-25T01:40:23.120Z,18.82
2018-05-25T01:42:54.148Z,18.80
2018-05-25T01:45:25.154Z,18.80
2018-05-25T01:47:56.189Z,18.79
2018-05-25T01:50:27.258Z,18.78
2018-05-25T01:52:58.260Z,18.76
2018-05-25T01:55:29.324Z,18.76
2018-05-25T01:58:00.326Z,18.76
2018-05-25T02:00:31.363Z,18.75
2018-05-25T02:03:02.417Z,18.74
2018-05-25T02:05:33.449Z,18.71
2018-05-25T02:08:04.489Z,18.66
2018-05-25T02:10:35.498Z,18.63
2018-05-25T02:13:06.520Z,18.58
2018-05-25T02:15:37.522Z,18.53
2018-05-25T02:18:08.546Z,18.47
2018-05-25T02:20:39.595Z,18.43
2018-05-25T02:23:10.706Z,18.36
2018-05-25T02:25:41.737Z,18.30
2018-05-25T02:28:12.782Z,18.26
2018-05-25T02:30:43.787Z,18.20
2018-05-25T02:33:14.824Z,18.18
2018-05-25T02:35:45.784Z,18.16
2018-05-25T02:38:16.812Z,18.11
2018-05-25T02:40:47.815Z,18.10
2018-05-25T02:43:18.866Z,18.09
2018-05-25T02:45:49.853Z,18.01
2018-05-25T02:48:20.888Z,17.91
2018-05-25T02:50:51.883Z,17.81
2018-05-25T02:53:22.906Z,17.74
2018-05-25T02:55:53.924Z,17.64
2018-05-25T02:58:24.943Z,17.56
2018-05-25T03:00:55.948Z,17.49
2018-05-25T03:03:26.960Z,17.43
2018-05-25T03:05:57.970Z,17.37
2018-05-25T03:08:29.002Z,17.32
2018-05-25T03:11:00.025Z,17.29
2018-05-25T03:13:31.012Z,17.27
2018-05-25T03:16:02.009Z,17.28
2018-05-25T03:18:32.990Z,17.27
2018-05-25T03:21:04.034Z,17.25
2018-05-25T03:23:35.011Z,17.28
2018-05-25T03:26:06.116Z,17.31
2018-05-25T03:28:37.024Z,17.33
2018-05-25T03:31:08.033Z,17.33
2018-05-25T03:33:39.044Z,17.31
2018-05-25T03:36:10.057Z,17.33
2018-05-25T03:38:41.075Z,17.38
2018-05-25T03:41:12.103Z,17.45
2018-05-25T03:43:43.121Z,17.50
2018-05-25T03:46:14.174Z,17.55
2018-05-25T03:48:45.192Z,17.61
2018-05-25T03:51:16.239Z,17.67
2018-05-25T03:53:47.322Z,17.73
2018-05-25T03:56:18.319Z,17.75
2018-05-25T04:01:57.512Z,17.81
2018-05-25T04:04:28.499Z,17.88
2018-05-25T04:06:59.469Z,17.99
2018-05-25T04:09:30.487Z,18.11
2018-05-25T04:12:01.453Z,18.21
2018-05-25T04:14:32.493Z,18.28
2018-05-25T04:17:03.497Z,18.33
2018-05-25T04:19:34.564Z,18.38
2018-05-25T04:22:05.564Z,18.40
2018-05-25T04:24:36.583Z,18.44
2018-05-25T04:27:07.600Z,18.45
2018-05-25T04:29:38.635Z,18.46
2018-05-25T04:32:09.614Z,18.53
2018-05-25T04:34:40.625Z,18.69
2018-05-25T04:37:11.636Z,18.87
2018-05-25T04:39:42.651Z,19.06
2018-05-25T04:42:13.674Z,19.31
2018-05-25T04:44:44.657Z,19.54
2018-05-25T04:47:15.646Z,19.71
2018-05-25T04:49:46.674Z,19.80
2018-05-25T04:52:17.678Z,19.94
2018-05-25T04:54:48.665Z,20.16
2018-05-25T04:57:19.693Z,20.44
2018-05-25T04:59:50.732Z,20.78
2018-05-25T05:02:21.713Z,20.92
2018-05-25T05:04:52.733Z,21.04
2018-05-25T05:07:23.754Z,21.10
2018-05-25T05:09:54.772Z,21.11
2018-05-25T05:12:25.783Z,21.15
2018-05-25T05:14:56.798Z,21.30
2018-05-25T05:17:27.830Z,21.30
2018-05-25T05:19:58.831Z,21.33
2018-05-25T05:22:29.846Z,21.52
2018-05-25T05:25:00.820Z,21.70
2018-05-25T05:27:31.825Z,21.87
2018-05-25T05:30:02.886Z,22.03
2018-05-25T05:32:33.944Z,22.23
2018-05-25T05:35:04.935Z,22.31
2018-05-25T05:37:35.970Z,22.33
2018-05-25T05:40:06.912Z,22.19
2018-05-25T05:42:37.931Z,22.24
2018-05-25T05:45:08.918Z,22.28
2018-05-25T05:47:39.912Z,22.32
2018-05-25T05:50:10.958Z,22.52
2018-05-25T05:52:41.973Z,22.80
2018-05-25T05:55:13.028Z,23.08
2018-05-25T05:57:44.067Z,23.28
2018-05-25T06:00:15.056Z,24.13
2018-05-25T06:02:46.104Z,27.38
2018-05-25T06:05:17.150Z,28.40
2018-05-25T06:07:48.215Z,27.89
2018-05-25T06:10:19.208Z,27.07
2018-05-25T06:12:50.301Z,26.87
2018-05-25T06:15:21.379Z,30.62
2018-05-25T06:17:52.371Z,36.42
2018-05-25T06:20:23.351Z,40.91
2018-05-25T06:22:54.350Z,43.57
2018-05-25T06:25:25.399Z,45.25
2018-05-25T06:27:56.390Z,47.12
2018-05-25T06:30:27.395Z,48.45
2018-05-25T06:32:58.421Z,50.22
2018-05-25T06:35:29.430Z,51.88
2018-05-25T06:38:00.414Z,52.83
2018-05-25T06:40:31.423Z,53.81
2018-05-25T06:43:02.433Z,54.08
2018-05-25T06:45:33.468Z,54.41
2018-05-25T06:48:04.489Z,54.84
2018-05-25T06:50:35.635Z,54.63
2018-05-25T06:53:06.604Z,54.83
2018-05-25T06:55:37.623Z,56.14
2018-05-25T06:58:08.606Z,57.01
2018-05-25T07:00:39.658Z,57.92
2018-05-25T07:03:10.669Z,58.47
2018-05-25T07:05:41.742Z,58.52
2018-05-25T07:08:12.739Z,57.86
2018-05-25T07:10:43.806Z,57.46
2018-05-25T07:13:14.804Z,57.76
2018-05-25T07:15:45.839Z,57.71
2018-05-25T07:18:16.880Z,57.56
2018-05-25T07:20:47.865Z,57.57
2018-05-25T07:23:18.914Z,57.73
2018-05-25T07:25:49.890Z,58.07
2018-05-25T07:28:20.898Z,58.77
2018-05-25T07:30:51.924Z,59.08
2018-05-25T07:33:22.976Z,59.05
2018-05-25T07:35:53.997Z,58.88
2018-05-25T07:38:25.008Z,58.76
2018-05-25T07:40:56.016Z,58.17
2018-05-25T07:43:27.028Z,58.27
2018-05-25T07:45:57.984Z,57.71
2018-05-25T07:48:29.050Z,57.73
2018-05-25T07:51:00.044Z,58.02
2018-05-25T07:53:31.177Z,58.29
2018-05-25T07:56:02.197Z,58.45
2018-05-25T07:58:33.229Z,58.53
2018-05-25T08:01:04.314Z,59.33
2018-05-25T08:03:35.296Z,59.44
2018-05-25T08:06:06.383Z,59.65
2018-05-25T08:08:37.402Z,59.90
2018-05-25T08:11:08.396Z,59.76
2018-05-25T08:13:39.385Z,59.21
2018-05-25T08:16:10.397Z,59.32
2018-05-25T08:18:41.438Z,59.66
2018-05-25T08:21:12.444Z,59.92
2018-05-25T08:23:43.488Z,60.27
2018-05-25T08:26:14.478Z,59.74
2018-05-25T08:28:45.491Z,60.12
2018-05-25T08:31:16.488Z,59.93
2018-05-25T08:33:47.549Z,59.74
2018-05-25T08:36:18.509Z,59.33
2018-05-25T08:38:49.542Z,60.00
2018-05-25T08:41:20.562Z,60.41
2018-05-25T08:43:51.599Z,60.70
2018-05-25T08:46:22.563Z,60.92
2018-05-25T08:48:53.612Z,55.55
2018-05-25T08:51:24.682Z,49.90
2018-05-25T08:53:55.698Z,46.22
2018-05-25T08:56:26.682Z,43.68
2018-05-25T08:58:57.690Z,45.77
2018-05-25T09:01:28.670Z,47.91
2018-05-25T09:03:59.689Z,49.24
2018-05-25T09:06:30.731Z,50.67
2018-05-25T09:09:01.744Z,52.78
2018-05-25T09:11:32.804Z,54.09
2018-05-25T09:14:03.832Z,55.16
2018-05-25T09:16:34.921Z,55.85
2018-05-25T09:19:05.912Z,56.08
2018-05-25T09:21:36.981Z,56.27
2018-05-25T09:24:08.034Z,57.05
2018-05-25T09:26:39.078Z,57.95
2018-05-25T09:29:10.083Z,57.57
2018-05-25T09:31:41.140Z,58.20
2018-05-25T09:34:12.155Z,59.20
2018-05-25T09:36:43.164Z,60.04
2018-05-25T09:39:14.205Z,60.61
2018-05-25T09:41:45.212Z,60.97
2018-05-25T09:44:16.292Z,61.10
2018-05-25T09:46:47.306Z,60.39
2018-05-25T09:49:18.345Z,60.19
2018-05-25T09:51:49.346Z,60.52
2018-05-25T09:54:20.366Z,60.90
2018-05-25T09:56:58.516Z,61.24
2018-05-25T09:59:29.554Z,61.64
2018-05-25T10:02:00.563Z,61.65
2018-05-25T10:04:31.601Z,60.94
2018-05-25T10:07:02.599Z,60.01
2018-05-25T10:09:33.667Z,58.27
2018-05-25T10:12:04.670Z,58.77
2018-05-25T10:14:35.680Z,59.59
2018-05-25T10:17:06.737Z,59.81
2018-05-25T10:19:37.766Z,59.17
2018-05-25T10:22:08.806Z,59.10
2018-05-25T10:24:40.750Z,59.54
2018-05-25T10:27:11.721Z,57.69
2018-05-25T10:29:42.762Z,53.30
2018-05-25T10:32:13.771Z,50.13
2018-05-25T10:34:44.822Z,47.52
2018-05-25T10:37:15.806Z,46.09
2018-05-25T10:39:46.852Z,45.05
2018-05-25T10:42:17.830Z,44.76
2018-05-25T10:44:48.874Z,46.45
2018-05-25T10:47:19.901Z,47.99
2018-05-25T10:49:50.958Z,48.83
2018-05-25T10:52:21.987Z,48.69
2018-05-25T10:54:53.120Z,47.44
2018-05-25T10:57:24.153Z,45.04
2018-05-25T10:59:55.172Z,42.81
2018-05-25T11:02:26.194Z,41.17
2018-05-25T11:04:57.223Z,39.61
2018-05-25T11:07:28.262Z,38.23
2018-05-25T11:09:59.348Z,37.65
2018-05-25T11:12:30.365Z,37.23
2018-05-25T11:15:01.361Z,36.68
2018-05-25T11:17:32.416Z,36.27
2018-05-25T11:20:03.415Z,35.87
2018-05-25T11:22:34.444Z,35.42
2018-05-25T11:25:05.513Z,35.05
2018-05-25T11:27:36.567Z,34.88
2018-05-25T11:30:07.588Z,34.55
2018-05-25T11:32:38.618Z,34.19
2018-05-25T11:35:09.633Z,34.18
2018-05-25T11:37:40.641Z,34.20
2018-05-25T11:40:11.643Z,34.10
2018-05-25T11:42:42.700Z,34.30
2018-05-25T11:45:13.676Z,33.91
2018-05-25T11:47:44.661Z,33.60
2018-05-25T11:50:15.693Z,33.48
2018-05-25T11:52:46.702Z,33.57
2018-05-25T11:55:17.710Z,33.08
2018-05-25T11:57:48.760Z,33.01
2018-05-25T12:00:19.776Z,32.91
2018-05-25T12:02:50.779Z,32.90
2018-05-25T12:05:21.781Z,33.07
2018-05-25T12:07:52.786Z,32.94
2018-05-25T12:10:23.837Z,32.99
2018-05-25T12:12:54.836Z,32.97
2018-05-25T12:15:25.860Z,32.88
2018-05-25T12:17:56.860Z,32.97
2018-05-25T12:20:27.878Z,32.87
2018-05-25T12:22:58.878Z,32.83
2018-05-25T12:25:29.903Z,32.97
2018-05-25T12:28:00.941Z,32.92
2018-05-25T12:30:31.972Z,32.73
2018-05-25T12:33:03.013Z,32.42
2018-05-25T12:35:34.055Z,32.64
2018-05-25T12:38:05.071Z,33.07
2018-05-25T12:40:36.092Z,32.87
2018-05-25T12:43:07.101Z,32.98
2018-05-25T12:45:38.073Z,33.21
2018-05-25T12:48:09.068Z,33.43
2018-05-25T12:50:40.139Z,33.75
2018-05-25T12:53:11.107Z,33.73
2018-05-25T12:55:42.131Z,33.18
2018-05-25T12:58:13.084Z,33.06
2018-05-25T13:00:44.112Z,33.41
2018-05-25T13:03:15.143Z,33.38
2018-05-25T13:05:46.153Z,32.82
2018-05-25T13:08:17.164Z,32.71
2018-05-25T13:10:48.166Z,32.79
2018-05-25T13:13:19.178Z,32.91
2018-05-25T13:15:50.184Z,33.13
2018-05-25T13:18:21.190Z,33.76
2018-05-25T13:20:52.169Z,34.33
2018-05-25T13:23:23.196Z,34.64
2018-05-25T13:25:54.217Z,34.85
2018-05-25T13:28:25.229Z,34.91
2018-05-25T13:30:56.211Z,34.10
2018-05-25T13:33:27.223Z,32.76
2018-05-25T13:35:58.237Z,31.22
2018-05-25T13:38:29.264Z,30.04
2018-05-25T13:41:00.289Z,28.78
2018-05-25T13:43:31.287Z,27.81
2018-05-25T13:46:02.553Z,27.25
2018-05-25T13:48:33.566Z,27.07
2018-05-25T13:51:04.606Z,26.39
2018-05-25T13:53:35.611Z,24.73
2018-05-25T13:56:06.643Z,22.14
2018-05-25T13:58:37.674Z,21.08
2018-05-25T14:01:08.682Z,20.93
2018-05-25T14:03:39.707Z,20.89
2018-05-25T14:06:10.728Z,20.72
2018-05-25T14:08:41.756Z,20.61
2018-05-25T14:11:12.747Z,20.58
2018-05-25T14:13:43.722Z,20.60
2018-05-25T14:16:14.771Z,20.64
2018-05-25T14:18:45.711Z,20.74
2018-05-25T14:21:16.734Z,21.20
2018-05-25T14:23:47.712Z,21.34
2018-05-25T14:26:18.789Z,21.71
2018-05-25T14:28:49.798Z,22.22
2018-05-25T14:31:20.835Z,22.90
2018-05-25T14:33:51.853Z,24.11
2018-05-25T14:36:22.868Z,25.20
2018-05-25T14:38:53.822Z,26.29
2018-05-25T14:41:24.958Z,26.82
2018-05-25T14:43:55.904Z,27.78
2018-05-25T14:46:26.911Z,27.93
2018-05-25T14:48:57.928Z,28.44
2018-05-25T14:51:28.892Z,28.44
2018-05-25T14:54:00.800Z,27.98
2018-05-25T14:56:31.825Z,27.48
2018-05-25T14:59:02.893Z,26.82
2018-05-25T15:01:33.832Z,26.43
2018-05-25T15:04:05.086Z,25.94
2018-05-25T15:06:36.157Z,25.46
2018-05-25T15:09:07.180Z,25.16
2018-05-25T15:11:38.226Z,25.01
2018-05-25T15:14:09.210Z,24.91
2018-05-25T15:16:40.206Z,24.76
2018-05-25T15:19:11.222Z,24.81
2018-05-25T15:21:42.270Z,24.94
2018-05-25T15:24:13.291Z,25.07
2018-05-25T15:26:44.350Z,25.31
2018-05-25T15:29:15.346Z,25.59
2018-05-25T15:31:46.410Z,25.76
2018-05-25T15:34:17.367Z,25.99
2018-05-25T15:36:48.357Z,26.33
2018-05-25T15:39:19.360Z,26.66
2018-05-25T15:41:50.401Z,26.93
2018-05-25T15:44:21.401Z,27.21
2018-05-25T15:46:52.433Z,27.37
2018-05-25T15:49:23.432Z,27.47
2018-05-25T15:51:54.476Z,27.43
2018-05-25T15:54:25.460Z,27.41
2018-05-25T15:56:56.486Z,27.41
2018-05-25T15:59:27.477Z,27.53
2018-05-25T16:01:58.474Z,27.62
2018-05-25T16:04:29.512Z,27.88
2018-05-25T16:07:00.556Z,28.09
2018-05-25T16:09:31.547Z,28.18
2018-05-25T16:12:02.599Z,28.42
2018-05-25T16:14:33.602Z,28.67
2018-05-25T16:17:04.612Z,28.88
2018-05-25T16:19:35.597Z,29.16
2018-05-25T16:22:06.609Z,29.13
2018-05-25T16:24:37.605Z,29.13
2018-05-25T16:27:08.647Z,29.29
2018-05-25T16:29:39.669Z,29.14
2018-05-25T16:32:10.687Z,28.96
2018-05-25T16:34:41.734Z,28.50
2018-05-25T16:37:12.836Z,28.06
2018-05-25T16:39:43.883Z,27.48
2018-05-25T16:42:14.900Z,27.39
2018-05-25T16:44:45.940Z,27.06
2018-05-25T16:47:16.989Z,26.69
2018-05-25T16:49:48.002Z,26.61
2018-05-25T16:52:19.042Z,26.61
2018-05-25T16:54:50.008Z,26.41
2018-05-25T16:57:21.019Z,26.11
2018-05-25T16:59:52.023Z,25.90
2018-05-25T17:02:23.014Z,25.74
2018-05-25T17:04:53.991Z,25.52
2018-05-25T17:07:25.038Z,25.45
2018-05-25T17:09:56.027Z,25.42
2018-05-25T17:12:27.079Z,25.47
2018-05-25T17:14:58.099Z,25.56
2018-05-25T17:17:29.136Z,25.62
2018-05-25T17:20:00.133Z,25.64
2018-05-25T17:22:38.366Z,25.68
2018-05-25T17:25:09.356Z,25.70
2018-05-25T17:27:40.367Z,25.68
2018-05-25T17:30:11.389Z,25.67
2018-05-25T17:32:42.452Z,25.62
2018-05-25T17:35:13.431Z,25.52
2018-05-25T17:37:44.460Z,25.45
2018-05-25T17:40:15.494Z,25.34
2018-05-25T17:42:46.533Z,25.23
2018-05-25T17:45:17.534Z,25.18
2018-05-25T17:47:48.541Z,25.05
2018-05-25T17:50:19.528Z,24.91
2018-05-25T17:52:50.568Z,24.77
2018-05-25T17:55:21.581Z,24.65
2018-05-25T17:57:52.657Z,24.56
2018-05-25T18:00:23.933Z,24.53
2018-05-25T18:02:54.969Z,24.56
2018-05-25T18:05:25.943Z,24.58
2018-05-25T18:07:56.938Z,24.61
2018-05-25T18:10:27.955Z,24.63
2018-05-25T18:12:59.025Z,24.59
2018-05-25T18:15:30.025Z,24.41
2018-05-25T18:18:01.091Z,24.31
2018-05-25T18:20:32.134Z,24.26
2018-05-25T18:23:03.127Z,24.13
2018-05-25T18:25:34.200Z,23.99
2018-05-25T18:28:05.198Z,23.90
2018-05-25T18:30:36.207Z,23.78
2018-05-25T18:33:07.191Z,23.67
2018-05-25T18:35:38.231Z,23.51
2018-05-25T18:38:09.545Z,23.35
2018-05-25T18:40:41.301Z,23.15
2018-05-25T18:43:12.564Z,23.03
2018-05-25T18:45:44.012Z,22.91
2018-05-25T18:48:15.107Z,22.82
2018-05-25T18:50:46.860Z,22.73
2018-05-25T18:53:18.646Z,22.63
2018-05-25T18:55:50.285Z,22.46
2018-05-25T18:58:23.011Z,22.39
2018-05-25T19:00:55.348Z,22.31
2018-05-25T19:03:27.154Z,22.21
2018-05-25T19:05:59.207Z,22.12
2018-05-25T19:08:30.480Z,22.02
2018-05-25T19:11:01.520Z,21.94
2018-05-25T19:13:32.579Z,21.84
2018-05-25T19:16:03.618Z,21.76
2018-05-25T19:18:34.684Z,21.64
2018-05-25T19:21:05.690Z,21.58
2018-05-25T19:23:36.686Z,21.47
2018-05-25T19:26:07.657Z,21.36
2018-05-25T19:28:38.672Z,21.32
2018-05-25T19:31:09.709Z,21.27
2018-05-25T19:33:40.873Z,21.21
2018-05-25T19:36:11.929Z,21.20
2018-05-25T19:38:42.975Z,21.20
2018-05-25T19:41:13.990Z,21.16
2018-05-25T19:43:44.960Z,21.09
2018-05-25T19:46:16.020Z,21.01
2018-05-25T19:48:47.029Z,20.98
2018-05-25T19:51:18.050Z,20.94
2018-05-25T19:53:49.116Z,20.92
2018-05-25T19:56:20.162Z,20.87
2018-05-25T19:58:51.168Z,20.85
2018-05-25T20:01:22.174Z,20.88
2018-05-25T20:03:53.246Z,20.88
2018-05-25T20:06:24.400Z,20.91
2018-05-25T20:08:55.462Z,20.92
2018-05-25T20:11:26.740Z,20.92
2018-05-25T20:13:57.745Z,20.88
2018-05-25T20:16:28.791Z,20.87
2018-05-25T20:18:59.798Z,20.84
2018-05-25T20:21:30.848Z,20.82
2018-05-25T20:24:01.884Z,20.80
2018-05-25T20:26:32.888Z,20.76
2018-05-25T20:29:03.973Z,20.73
2018-05-25T20:31:35.019Z,20.69
2018-05-25T20:34:06.042Z,20.65
2018-05-25T20:36:37.041Z,20.62
2018-05-25T20:39:08.098Z,20.57
2018-05-25T20:41:39.135Z,20.55
2018-05-25T20:44:10.187Z,20.51
2018-05-25T20:46:41.238Z,20.48
2018-05-25T20:49:12.236Z,20.43
2018-05-25T20:51:43.273Z,20.36
2018-05-25T20:54:14.755Z,20.29
2018-05-25T20:56:45.825Z,20.22
2018-05-25T20:59:16.906Z,20.17
2018-05-25T21:01:47.896Z,20.12
2018-05-25T21:04:18.895Z,20.08
2018-05-25T21:06:49.892Z,20.03
2018-05-25T21:09:20.952Z,19.98
2018-05-25T21:11:51.958Z,19.91
2018-05-25T21:14:22.970Z,19.85
2018-05-25T21:16:53.994Z,19.82
2018-05-25T21:19:25.074Z,19.80
2018-05-25T21:21:56.090Z,19.80
2018-05-25T21:24:27.110Z,19.78
2018-05-25T21:26:58.671Z,19.71
2018-05-25T21:29:29.679Z,19.67
2018-05-25T21:32:00.748Z,19.67
2018-05-25T21:34:31.780Z,19.65
2018-05-25T21:37:02.836Z,19.63
2018-05-25T21:39:33.873Z,19.62
2018-05-25T21:42:04.882Z,19.56
2018-05-25T21:44:35.910Z,19.52
2018-05-25T21:47:06.932Z,19.45
2018-05-25T21:49:37.956Z,19.38
2018-05-25T21:52:08.940Z,19.37
2018-05-25T21:54:39.969Z,19.35
2018-05-25T21:57:10.984Z,19.31
2018-05-25T21:59:42.000Z,19.29
2018-05-25T22:02:13.084Z,19.27
2018-05-25T22:04:44.116Z,19.24
2018-05-25T22:07:15.155Z,19.22
2018-05-25T22:09:46.143Z,19.17
2018-05-25T22:12:17.172Z,19.11
2018-05-25T22:14:48.204Z,19.08
2018-05-25T22:17:19.216Z,19.02
2018-05-25T22:19:50.233Z,18.96
2018-05-25T22:22:21.230Z,18.93
2018-05-25T22:24:52.258Z,18.92
2018-05-25T22:27:23.292Z,18.87
2018-05-25T22:29:54.323Z,18.83
2018-05-25T22:32:25.353Z,18.81
2018-05-25T22:34:56.341Z,18.82
2018-05-25T22:37:27.330Z,18.74
2018-05-25T22:39:58.460Z,18.64
2018-05-25T22:42:41.755Z,18.66
2018-05-25T22:45:24.977Z,18.60
2018-05-25T22:48:08.226Z,18.51
2018-05-25T22:50:51.420Z,18.45
2018-05-25T22:53:28.342Z,18.41
2018-05-25T22:55:59.400Z,18.40
2018-05-25T22:58:30.403Z,18.37
2018-05-25T23:01:01.448Z,18.36
2018-05-25T23:03:32.461Z,18.34
2018-05-25T23:06:03.510Z,18.32
2018-05-25T23:08:34.533Z,18.28
2018-05-25T23:11:05.552Z,18.27
2018-05-25T23:13:36.529Z,18.30
2018-05-25T23:16:07.493Z,18.27
2018-05-25T23:18:38.591Z,18.26
2018-05-25T23:21:09.537Z,18.15
2018-05-25T23:23:40.559Z,18.12
2018-05-25T23:26:11.555Z,18.07
2018-05-25T23:28:42.644Z,18.03
2018-05-25T23:31:13.656Z,18.03
2018-05-25T23:33:44.675Z,18.00
2018-05-25T23:36:15.660Z,17.95
2018-05-25T23:38:46.669Z,17.89
2018-05-25T23:41:17.613Z,17.84
2018-05-25T23:43:48.676Z,17.87
2018-05-25T23:46:19.697Z,17.87
2018-05-25T23:48:50.671Z,17.86
2018-05-25T23:51:21.693Z,17.88
2018-05-25T23:53:52.682Z,17.89
2018-05-25T23:56:23.682Z,17.90
2018-05-25T23:58:54.638Z,17.89
